Time;durP1;ratioP1;P1;durP2;ratioP2;P2;SDS_P1;SDS_P2;PMS_P1;PMS_P2;Temp;Humidity;BMP_temperature;BMP_pressure;BME280_temperature;BME280_humidity;BME280_pressure;Samples;Min_cycle;Max_cycle;Signal;HPM_P1;HPM_P2
2023/04/17 00:00:43;;;;;;;4.07;3.15;;;;;;;;;;6285512;22;20435;-72
2023/04/17 00:03:10;;;;;;;4.28;3.13;;;;;;;;;;6285127;22;20004;-74
2023/04/17 00:05:37;;;;;;;4.32;3.10;;;17.70;85.80;;;;;;6285688;22;20000;-74
2023/04/17 00:08:03;;;;;;;3.30;3.00;;;17.20;85.20;;;;;;6275548;22;20003;-74
2023/04/17 00:10:28;;;;;;;4.75;2.90;;;17.60;85.60;;;;;;6286242;22;20212;-77
2023/04/17 00:12:54;;;;;;;4.35;3.65;;;17.70;85.40;;;;;;6277851;22;20038;-77
2023/04/17 00:15:20;;;;;;;3.38;2.78;;;17.80;85.70;;;;;;6287873;22;20024;-77
2023/04/17 00:17:45;;;;;;;3.70;3.03;;;17.60;85.50;;;;;;6275970;22;20004;-77
2023/04/17 00:20:12;;;;;;;4.57;2.95;;;17.50;67.10;;;;;;6287529;22;20023;-77
2023/04/17 00:22:38;;;;;;;4.22;3.33;;;17.80;85.60;;;;;;6287840;22;19996;-77
2023/04/17 00:25:04;;;;;;;4.53;3.05;;;17.70;85.60;;;;;;6287518;22;20323;-77
2023/04/17 00:27:29;;;;;;;4.70;3.30;;;17.80;85.60;;;;;;6287668;22;20004;-77
2023/04/17 00:29:55;;;;;;;4.28;3.33;;;17.80;85.60;;;;;;6287507;22;20155;-78
2023/04/17 00:32:21;;;;;;;3.65;3.25;;;17.80;85.70;;;;;;6287660;22;19992;-77
2023/04/17 00:34:46;;;;;;;4.28;3.10;;;17.80;85.60;;;;;;6287726;22;20339;-77
2023/04/17 00:37:12;;;;;;;4.30;3.30;;;17.60;85.60;;;;;;6287456;22;19992;-77
2023/04/17 00:39:37;;;;;;;3.95;2.85;;;17.70;85.70;;;;;;6287558;22;19996;-77
2023/04/17 00:42:03;;;;;;;2.97;2.72;;;17.50;85.60;;;;;;6285818;22;20007;-76
2023/04/17 00:44:29;;;;;;;3.55;2.90;;;;;;;;;;6287469;22;20434;-77
2023/04/17 00:46:55;;;;;;;4.93;3.10;;;17.60;86.10;;;;;;6287428;22;20043;-76
2023/04/17 00:49:22;;;;;;;3.47;3.17;;;17.60;69.80;;;;;;6287070;22;20056;-77
2023/04/17 00:51:48;;;;;;;3.50;2.92;;;17.80;85.80;;;;;;6287152;22;20026;-77
2023/04/17 00:54:14;;;;;;;3.92;3.38;;;17.50;85.70;;;;;;6286997;22;20000;-77
2023/04/17 00:56:42;;;;;;;3.40;3.10;;;17.60;86.00;;;;;;6275267;22;19996;-77
2023/04/17 00:59:11;;;;;;;3.22;2.92;;;17.70;86.00;;;;;;6287149;22;20023;-77
2023/04/17 01:01:37;;;;;;;3.50;3.03;;;17.80;86.00;;;;;;6286977;22;20039;-77
2023/04/17 01:04:04;;;;;;;3.92;2.85;;;17.70;55.50;;;;;;6286853;22;20011;-73
2023/04/17 01:06:30;;;;;;;3.30;2.58;;;17.60;86.00;;;;;;6276962;22;20003;-73
2023/04/17 01:08:56;;;;;;;3.10;2.80;;;17.80;86.00;;;;;;6276986;22;20000;-73
2023/04/17 01:11:23;;;;;;;3.63;2.47;;;17.60;86.10;;;;;;6276488;22;20030;-73
2023/04/17 01:13:50;;;;;;;2.95;2.65;;;17.40;86.30;;;;;;6276418;22;19999;-73
2023/04/17 01:16:17;;;;;;;3.30;2.33;;;17.40;86.50;;;;;;6276455;22;20007;-73
2023/04/17 01:18:43;;;;;;;4.20;3.40;;;17.80;86.50;;;;;;6276455;22;19996;-73
2023/04/17 01:21:10;;;;;;;4.10;3.17;;;;;;;;;;6276621;22;20331;-73
2023/04/17 01:23:43;;;;;;;4.80;2.97;;;17.60;86.50;;;;;;6286451;22;20002;-73
2023/04/17 01:26:15;;;;;;;4.00;2.60;;;17.50;79.00;;;;;;6276313;22;20006;-72
2023/04/17 01:28:41;;;;;;;3.60;2.83;;;17.40;71.60;;;;;;6276674;22;20441;-73
2023/04/17 01:31:07;;;;;;;2.83;2.60;;;17.70;86.40;;;;;;6286543;22;20067;-73
2023/04/17 01:33:32;;;;;;;3.22;2.92;;;17.80;86.20;;;;;;6286579;22;20427;-73
2023/04/17 01:35:58;;;;;;;3.05;2.53;;;17.70;86.10;;;;;;6286538;22;20002;-73
2023/04/17 01:38:23;;;;;;;2.83;2.50;;;17.50;86.00;;;;;;6286445;22;20019;-73
2023/04/17 01:40:49;;;;;;;2.80;2.58;;;17.40;85.80;;;;;;6286440;22;20003;-77
2023/04/17 01:43:15;;;;;;;2.50;2.30;;;17.50;85.70;;;;;;6286619;22;20072;-77
2023/04/17 01:45:40;;;;;;;2.63;2.40;;;17.70;85.90;;;;;;6286560;22;20007;-77
2023/04/17 01:48:06;;;;;;;2.60;2.40;;;17.90;86.00;;;;;;6286510;22;19995;-77
2023/04/17 01:50:31;;;;;;;2.83;2.17;;;17.50;85.80;;;;;;6286402;22;20023;-77
2023/04/17 01:52:57;;;;;;;4.30;2.70;;;17.70;85.90;;;;;;6286390;22;20019;-77
2023/04/17 01:55:23;;;;;;;3.28;2.83;;;17.70;85.60;;;;;;6286350;22;20071;-77
2023/04/17 01:57:49;;;;;;;3.78;2.38;;;17.60;83.20;;;;;;6286497;22;19995;-77
2023/04/17 02:00:15;;;;;;;2.45;2.25;;;17.50;85.50;;;;;;6284834;22;20003;-73
2023/04/17 02:02:41;;;;;;;3.38;2.55;;;17.70;64.50;;;;;;6276009;22;20011;-73
2023/04/17 02:05:07;;;;;;;2.55;2.25;;;17.50;85.70;;;;;;6286294;22;20446;-74
2023/04/17 02:07:32;;;;;;;2.17;1.98;;;17.20;85.40;;;;;;6286257;22;19996;-73
2023/04/17 02:09:58;;;;;;;3.22;2.15;;;;;;;;;;6286193;22;20002;-73
2023/04/17 02:12:24;;;;;;;2.92;2.65;;;;;;;;;;6286150;22;20106;-72
2023/04/17 02:14:50;;;;;;;2.30;2.10;;;17.60;68.50;;;;;;6286194;22;20029;-73
2023/04/17 02:17:15;;;;;;;3.85;2.60;;;17.50;62.70;;;;;;6286140;22;20092;-76
2023/04/17 02:19:41;;;;;;;3.80;2.35;;;17.70;60.60;;;;;;6286217;22;19996;-76
2023/04/17 02:22:06;;;;;;;3.28;2.85;;;17.50;85.10;;;;;;6286540;22;20008;-76
2023/04/17 02:24:32;;;;;;;3.05;2.53;;;17.80;85.20;;;;;;6274217;22;20397;-76
2023/04/17 02:26:58;;;;;;;3.65;2.47;;;17.70;85.20;;;;;;6286020;22;20003;-76
2023/04/17 02:29:23;;;;;;;2.50;2.17;;;17.50;75.00;;;;;;6286081;22;20067;-76
2023/04/17 02:31:49;;;;;;;2.33;2.00;;;17.50;85.00;;;;;;6286027;22;19992;-77
2023/04/17 02:34:14;;;;;;;3.17;2.63;;;17.40;85.10;;;;;;6285724;22;20070;-76
2023/04/17 02:36:40;;;;;;;2.40;2.13;;;17.30;85.20;;;;;;6276104;22;20022;-72
2023/04/17 02:39:06;;;;;;;3.65;2.20;;;17.60;85.40;;;;;;6286034;22;20442;-72
2023/04/17 02:41:31;;;;;;;2.50;2.20;;;17.70;85.40;;;;;;6285830;22;20014;-72
2023/04/17 02:43:59;;;;;;;3.17;2.53;;;16.90;56.30;;;;;;6285914;22;20019;-73
2023/04/17 02:46:25;;;;;;;2.28;2.08;;;17.20;85.40;;;;;;6285907;22;20334;-73
2023/04/17 02:48:51;;;;;;;2.60;2.35;;;17.70;85.80;;;;;;6286249;22;20030;-73
2023/04/17 02:51:17;;;;;;;2.67;2.33;;;17.70;85.80;;;;;;6285844;22;19995;-73
2023/04/17 02:53:43;;;;;;;4.75;2.58;;;17.70;85.90;;;;;;6285917;22;19996;-73
2023/04/17 02:56:08;;;;;;;2.88;2.58;;;17.60;85.70;;;;;;6285807;22;20477;-73
2023/04/17 02:58:34;;;;;;;2.20;2.00;;;17.70;86.30;;;;;;6285776;22;19991;-73
2023/04/17 03:01:02;;;;;;;2.92;2.20;;;17.60;51.90;;;;;;6285710;22;20014;-73
2023/04/17 03:03:33;;;;;;;2.53;2.05;;;17.70;87.00;;;;;;6285557;22;20061;-73
2023/04/17 03:05:59;;;;;;;3.10;2.80;;;17.70;86.70;;;;;;6285738;22;20343;-73
2023/04/17 03:08:28;;;;;;;3.42;2.28;;;;;;;;;;6285739;22;19991;-73
2023/04/17 03:10:54;;;;;;;2.75;2.13;;;17.40;86.60;;;;;;6285798;22;20510;-74
2023/04/17 03:13:20;;;;;;;4.32;2.83;;;17.10;86.60;;;;;;6285770;22;20074;-77
2023/04/17 03:15:46;;;;;;;2.72;2.40;;;17.60;86.40;;;;;;6285683;22;20027;-76
2023/04/17 03:18:11;;;;;;;3.03;2.63;;;17.70;84.70;;;;;;6285615;22;20102;-77
2023/04/17 03:20:37;;;;;;;3.05;2.20;;;;;;;;;;6285379;22;20083;-77
2023/04/17 03:23:03;;;;;;;2.90;2.40;;;17.60;55.40;;;;;;6285564;22;20003;-77
2023/04/17 03:25:29;;;;;;;2.35;2.15;;;17.70;86.70;;;;;;6285677;22;20003;-77
2023/04/17 03:27:55;;;;;;;2.72;2.42;;;;;;;;;;6285599;22;20351;-77
2023/04/17 03:30:21;;;;;;;2.70;2.50;;;17.70;86.50;;;;;;6275613;22;20123;-73
2023/04/17 03:32:46;;;;;;;2.72;2.17;;;17.60;86.30;;;;;;6285573;22;20523;-77
2023/04/17 03:35:12;;;;;;;2.40;2.20;;;17.60;86.20;;;;;;6285601;22;20003;-77
2023/04/17 03:37:37;;;;;;;3.25;2.63;;;17.20;86.00;;;;;;6285461;22;20105;-77
2023/04/17 03:40:05;;;;;;;3.53;2.55;;;17.80;59.30;;;;;;6285354;22;20023;-77
2023/04/17 03:42:30;;;;;;;2.40;2.13;;;17.10;85.60;;;;;;6285617;22;20072;-77
2023/04/17 03:44:56;;;;;;;2.60;2.40;;;17.50;86.00;;;;;;6285825;22;20074;-77
2023/04/17 03:47:22;;;;;;;2.25;2.05;;;17.10;86.10;;;;;;6290566;22;20000;-77
2023/04/17 03:49:47;;;;;;;4.13;2.72;;;17.60;86.40;;;;;;6290341;22;20067;-74
2023/04/17 03:52:13;;;;;;;3.80;2.63;;;;;;;;;;6289543;22;20057;-74
2023/04/17 03:54:39;;;;;;;2.63;2.42;;;;;;;;;;6288794;22;20003;-73
2023/04/17 03:57:05;;;;;;;3.13;2.47;;;;;;;;;;6288965;22;20074;-73
2023/04/17 03:59:31;;;;;;;3.63;2.33;;;17.50;86.20;;;;;;6288834;22;19996;-73
2023/04/17 04:05:18;;;;;;;2.10;1.90;;;17.50;86.10;;;;;;6258192;23;20046;-78
2023/04/17 04:07:44;;;;;;;3.00;2.25;;;17.60;86.20;;;;;;6258117;23;20369;-79
2023/04/17 04:10:10;;;;;;;3.08;2.33;;;17.40;86.00;;;;;;6246372;23;20518;-78
2023/04/17 04:12:35;;;;;;;2.53;2.33;;;17.60;86.40;;;;;;6258181;23;20032;-79
2023/04/17 04:15:01;;;;;;;2.53;2.33;;;17.30;86.20;;;;;;6258120;23;19996;-79
2023/04/17 04:17:26;;;;;;;2.42;2.22;;;17.70;86.50;;;;;;6258288;23;20000;-78
2023/04/17 04:19:52;;;;;;;2.55;2.35;;;;;;;;;;6258355;23;20000;-73
2023/04/17 04:22:20;;;;;;;2.47;2.10;;;17.60;86.20;;;;;;6257980;23;19996;-73
2023/04/17 04:24:46;;;;;;;2.42;2.22;;;17.30;85.80;;;;;;6258168;22;19996;-73
2023/04/17 04:27:12;;;;;;;2.72;2.30;;;17.60;85.90;;;;;;6258015;22;19996;-73
2023/04/17 04:29:37;;;;;;;3.40;2.55;;;17.60;85.70;;;;;;6258012;23;19992;-72
2023/04/17 04:32:03;;;;;;;3.53;2.50;;;17.60;85.70;;;;;;6256504;23;19996;-72
2023/04/17 04:34:29;;;;;;;2.58;2.17;;;17.60;85.60;;;;;;6258087;22;20031;-73
2023/04/17 04:36:56;;;;;;;2.13;1.92;;;17.60;85.70;;;;;;6258065;23;20000;-72
2023/04/17 04:39:21;;;;;;;2.50;2.13;;;17.70;85.80;;;;;;6248207;22;20304;-72
2023/04/17 04:41:50;;;;;;;3.08;2.35;;;17.70;85.70;;;;;;6257894;23;20054;-73
2023/04/17 04:44:17;;;;;;;2.38;2.17;;;17.50;53.80;;;;;;6257988;22;20071;-72
2023/04/17 04:46:42;;;;;;;2.78;2.15;;;17.60;58.80;;;;;;6257915;22;20011;-72
2023/04/17 04:49:08;;;;;;;2.47;2.10;;;;;;;;;;6257808;23;19996;-72
2023/04/17 04:51:34;;;;;;;2.30;2.10;;;17.20;54.60;;;;;;6257975;22;20062;-72
2023/04/17 04:54:01;;;;;;;2.00;1.83;;;17.20;85.80;;;;;;6257972;23;20000;-72
2023/04/17 04:56:27;;;;;;;1.90;1.77;;;17.60;66.00;;;;;;6258072;22;20023;-72
2023/04/17 04:58:54;;;;;;;2.00;1.90;;;17.50;86.00;;;;;;6255769;22;20067;-72
2023/04/17 05:01:19;;;;;;;2.28;2.08;;;17.60;86.00;;;;;;6256052;22;20028;-72
2023/04/17 05:03:45;;;;;;;3.10;2.60;;;17.60;86.20;;;;;;6245855;22;20031;-72
2023/04/17 05:06:12;;;;;;;3.63;2.30;;;17.60;86.30;;;;;;6246398;23;20000;-72
2023/04/17 05:08:38;;;;;;;2.65;2.25;;;;;;;;;;6245856;22;19992;-72
2023/04/17 05:11:04;;;;;;;3.03;2.10;;;17.60;86.20;;;;;;6256095;23;20067;-73
2023/04/17 05:13:30;;;;;;;2.72;2.42;;;17.20;86.10;;;;;;6256239;22;20003;-73
2023/04/17 05:15:56;;;;;;;2.42;1.92;;;17.50;86.30;;;;;;6256031;22;20000;-74
2023/04/17 05:18:22;;;;;;;3.95;2.30;;;17.30;86.20;;;;;;6257830;23;19992;-73
2023/04/17 05:20:47;;;;;;;3.35;2.30;;;17.50;86.20;;;;;;6262688;22;20012;-72
2023/04/17 05:23:13;;;;;;;2.33;2.13;;;17.40;86.20;;;;;;6256102;22;20019;-72
2023/04/17 05:25:39;;;;;;;2.47;2.20;;;17.50;86.30;;;;;;6262792;23;20003;-74
2023/04/17 05:28:05;;;;;;;2.15;1.98;;;17.60;86.10;;;;;;6256038;23;20015;-72
2023/04/17 05:30:31;;;;;;;2.20;2.00;;;17.30;85.90;;;;;;6255971;22;20068;-73
2023/04/17 05:32:57;;;;;;;2.42;2.22;;;17.60;85.80;;;;;;6246167;23;20024;-74
2023/04/17 05:35:23;;;;;;;2.25;2.05;;;17.40;58.40;;;;;;6246018;22;19996;-76
2023/04/17 05:37:49;;;;;;;2.20;2.00;;;;;;;;;;6255303;23;20446;-75
2023/04/17 05:40:15;;;;;;;2.42;2.22;;;;;;;;;;6245916;23;20388;-74
2023/04/17 05:42:41;;;;;;;3.20;2.50;;;17.50;86.10;;;;;;6255815;23;20023;-73
2023/04/17 05:45:10;;;;;;;2.80;2.40;;;17.30;86.10;;;;;;6246027;22;20023;-73
2023/04/17 05:47:37;;;;;;;2.07;1.87;;;17.50;86.30;;;;;;6255928;22;20046;-73
2023/04/17 05:50:02;;;;;;;2.88;2.10;;;17.60;86.50;;;;;;6245538;22;19996;-75
2023/04/17 05:52:28;;;;;;;2.88;2.58;;;;;;;;;;6245788;23;19996;-74
2023/04/17 05:54:55;;;;;;;2.17;1.98;;;;;;;;;;6255516;23;19992;-74
2023/04/17 05:57:21;;;;;;;3.40;2.47;;;;;;;;;;6245465;22;20430;-73
2023/04/17 05:59:48;;;;;;;3.33;2.40;;;;;;;;;;6245462;23;19996;-74
2023/04/17 06:02:15;;;;;;;2.53;2.30;;;;;;;;;;6245458;22;20015;-74
2023/04/17 06:04:42;;;;;;;3.20;2.28;;;17.40;86.50;;;;;;6245959;22;20004;-74
2023/04/17 06:07:09;;;;;;;3.42;3.10;;;17.50;55.10;;;;;;6245599;22;20061;-74
2023/04/17 06:09:36;;;;;;;2.92;2.63;;;17.60;86.50;;;;;;6245569;22;19992;-74
2023/04/17 06:12:03;;;;;;;2.88;2.40;;;17.60;85.90;;;;;;6245825;22;20429;-74
2023/04/17 06:14:30;;;;;;;3.67;2.55;;;17.50;85.80;;;;;;6245890;22;20007;-74
2023/04/17 06:16:56;;;;;;;4.28;2.75;;;;;;;;;;6245482;22;19996;-73
2023/04/17 06:19:23;;;;;;;3.15;2.50;;;17.70;76.40;;;;;;6245748;23;20023;-73
2023/04/17 06:21:49;;;;;;;3.22;2.40;;;17.70;86.00;;;;;;6245352;22;20450;-73
2023/04/17 06:24:15;;;;;;;3.05;2.50;;;17.40;85.50;;;;;;6245716;22;19992;-73
2023/04/17 06:26:41;;;;;;;3.53;2.58;;;17.60;85.90;;;;;;6245751;23;20006;-76
2023/04/17 06:29:07;;;;;;;3.65;2.60;;;17.50;85.80;;;;;;6245292;23;20093;-76
2023/04/17 06:31:33;;;;;;;3.40;2.60;;;17.30;85.50;;;;;;6245749;22;20333;-76
2023/04/17 06:33:59;;;;;;;3.22;2.53;;;17.40;85.50;;;;;;6245613;23;19999;-74
2023/04/17 06:36:26;;;;;;;3.55;2.75;;;17.10;85.70;;;;;;6245690;23;20000;-76
2023/04/17 06:38:52;;;;;;;3.88;2.72;;;;;;;;;;6245506;22;20075;-76
2023/04/17 06:41:19;;;;;;;2.95;2.50;;;17.60;85.40;;;;;;6244974;23;20046;-76
2023/04/17 06:43:45;;;;;;;3.15;2.08;;;17.50;86.10;;;;;;6245643;22;20000;-76
2023/04/17 06:46:11;;;;;;;2.58;2.38;;;17.70;86.10;;;;;;6255302;23;20318;-76
2023/04/17 06:48:36;;;;;;;3.88;3.05;;;17.60;85.90;;;;;;6255442;23;20095;-75
2023/04/17 06:51:02;;;;;;;3.90;3.05;;;;;;;;;;6255213;23;20027;-75
2023/04/17 06:53:28;;;;;;;2.45;2.25;;;;;;;;;;6255305;23;19996;-75
2023/04/17 06:55:54;;;;;;;5.40;2.72;;;17.60;85.70;;;;;;6255306;23;20003;-75
2023/04/17 06:58:19;;;;;;;2.70;2.50;;;17.60;85.60;;;;;;6255253;23;20446;-76
2023/04/17 07:00:45;;;;;;;3.42;2.65;;;17.50;85.60;;;;;;6255184;23;20008;-77
2023/04/17 07:03:12;;;;;;;5.10;2.60;;;17.40;85.40;;;;;;6254978;23;20487;-73
2023/04/17 07:05:38;;;;;;;3.00;2.40;;;17.70;61.70;;;;;;6243307;23;20007;-75
2023/04/17 07:08:04;;;;;;;3.30;2.88;;;17.60;85.70;;;;;;6255153;23;20328;-74
2023/04/17 07:10:29;;;;;;;3.33;2.47;;;17.50;85.30;;;;;;6244939;23;20012;-73
2023/04/17 07:12:55;;;;;;;4.70;3.17;;;17.60;85.40;;;;;;6245237;22;19992;-75
2023/04/17 07:15:21;;;;;;;3.40;2.92;;;17.40;85.20;;;;;;6255001;23;20003;-75
2023/04/17 07:17:46;;;;;;;3.42;2.97;;;17.40;64.20;;;;;;6245137;23;20296;-76
2023/04/17 07:20:12;;;;;;;3.40;3.00;;;17.70;85.20;;;;;;6254519;23;20342;-74
2023/04/17 07:22:37;;;;;;;6.70;3.45;;;17.60;85.40;;;;;;6255085;23;20056;-72
2023/04/17 07:25:04;;;;;;;4.22;3.45;;;17.60;85.20;;;;;;6245190;23;19999;-71
2023/04/17 07:27:30;;;;;;;3.38;2.72;;;;;;;;;;6255035;22;20327;-71
2023/04/17 07:29:56;;;;;;;4.88;2.92;;;17.70;85.30;;;;;;6254978;23;19996;-73
2023/04/17 07:32:23;;;;;;;2.95;2.63;;;17.50;53.40;;;;;;6254948;22;20000;-72
2023/04/17 07:34:48;;;;;;;3.30;2.92;;;17.50;74.20;;;;;;6255062;22;20081;-73
2023/04/17 07:37:14;;;;;;;2.90;2.60;;;17.40;85.50;;;;;;6254998;23;20382;-73
2023/04/17 07:39:40;;;;;;;4.97;2.78;;;17.50;85.60;;;;;;6245182;23;19992;-72
2023/04/17 07:42:07;;;;;;;4.68;3.67;;;17.60;85.80;;;;;;6255060;22;20031;-73
2023/04/17 07:44:33;;;;;;;6.00;3.78;;;17.60;85.90;;;;;;6244963;22;20004;-73
2023/04/17 07:46:59;;;;;;;3.83;3.25;;;17.60;86.10;;;;;;6255043;22;19996;-73
2023/04/17 07:49:25;;;;;;;5.47;3.60;;;17.70;86.40;;;;;;6255021;23;20019;-72
2023/04/17 07:51:51;;;;;;;4.35;3.08;;;;;;;;;;6255013;22;20067;-73
2023/04/17 07:54:17;;;;;;;4.35;3.15;;;17.70;73.20;;;;;;6254460;23;20078;-73
2023/04/17 07:56:45;;;;;;;4.90;2.92;;;17.70;72.20;;;;;;6253565;23;20023;-73
2023/04/17 07:59:11;;;;;;;4.88;3.22;;;17.60;86.70;;;;;;6256170;23;20003;-76
2023/04/17 08:01:37;;;;;;;3.25;2.70;;;17.50;86.20;;;;;;6255600;22;20442;-77
2023/04/17 08:04:02;;;;;;;4.13;3.10;;;17.60;63.20;;;;;;6255519;23;20004;-76
2023/04/17 08:06:28;;;;;;;2.65;2.38;;;;;;;;;;6245058;23;20000;-77
2023/04/17 08:08:54;;;;;;;4.32;3.65;;;17.70;86.10;;;;;;6255004;23;19992;-78
2023/04/17 08:11:20;;;;;;;5.03;3.40;;;17.50;62.40;;;;;;6254920;22;20138;-79
2023/04/17 08:13:45;;;;;;;4.40;3.28;;;17.50;86.10;;;;;;6255064;22;20587;-76
2023/04/17 08:16:11;;;;;;;4.30;3.67;;;17.70;86.20;;;;;;6253545;23;20076;-76
2023/04/17 08:18:38;;;;;;;3.67;3.08;;;17.70;86.20;;;;;;6247796;22;20046;-74
2023/04/17 08:21:04;;;;;;;3.25;2.90;;;17.70;86.40;;;;;;6244534;22;20015;-74
2023/04/17 08:23:30;;;;;;;5.00;3.63;;;17.40;86.20;;;;;;6244910;22;20031;-75
2023/04/17 08:25:55;;;;;;;3.95;3.55;;;17.60;86.20;;;;;;6254868;22;19997;-76
2023/04/17 08:28:21;;;;;;;4.28;3.13;;;;;;;;;;6254697;23;19997;-76
2023/04/17 08:30:47;;;;;;;5.35;3.17;;;17.60;71.60;;;;;;6254718;23;20058;-75
2023/04/17 08:33:15;;;;;;;5.70;3.35;;;17.70;80.20;;;;;;6255453;23;20000;-75
2023/04/17 08:35:41;;;;;;;4.55;3.25;;;17.30;85.60;;;;;;6256568;22;20050;-78
2023/04/17 08:38:09;;;;;;;3.95;3.20;;;17.30;85.70;;;;;;6256623;23;20004;-77
2023/04/17 08:40:35;;;;;;;3.75;3.20;;;17.50;85.60;;;;;;6246160;22;20000;-78
2023/04/17 08:43:02;;;;;;;4.80;3.55;;;17.60;55.40;;;;;;6255104;23;20327;-77
2023/04/17 08:45:28;;;;;;;4.88;3.65;;;;;;;;;;6256539;22;19996;-77
2023/04/17 08:47:54;;;;;;;4.63;3.42;;;17.60;85.20;;;;;;6256463;23;20054;-76
2023/04/17 08:50:20;;;;;;;4.53;3.17;;;17.60;85.40;;;;;;6256628;23;19996;-76
2023/04/17 08:52:50;;;;;;;4.72;3.65;;;17.40;85.00;;;;;;6244828;23;19996;-80
2023/04/17 08:55:23;;;;;;;4.18;3.42;;;17.60;85.10;;;;;;6256768;22;20023;-79
2023/04/17 08:58:02;;;;;;;3.22;2.92;;;17.20;85.00;;;;;;6256673;22;19992;-79
2023/04/17 09:00:39;;;;;;;3.85;3.38;;;17.60;55.90;;;;;;6256665;22;20000;-80
2023/04/17 09:03:09;;;;;;;3.92;3.30;;;17.60;55.40;;;;;;6244394;23;20035;-79
2023/04/17 09:05:36;;;;;;;6.35;3.60;;;17.60;54.80;;;;;;6256325;22;20000;-80
2023/04/17 09:08:22;;;;;;;3.65;3.25;;;17.60;55.90;;;;;;6246552;22;20024;-79
2023/04/17 09:10:50;;;;;;;4.80;4.00;;;17.60;55.90;;;;;;6256723;22;20046;-79
2023/04/17 09:13:18;;;;;;;3.72;3.10;;;17.60;56.00;;;;;;6256416;22;20048;-75
2023/04/17 09:15:45;;;;;;;4.28;3.80;;;17.60;54.80;;;;;;6256189;22;20055;-75
2023/04/17 09:18:48;;;;;;;4.03;3.40;;;17.70;86.40;;;;;;6256188;22;19992;-75
2023/04/17 09:21:19;;;;;;;4.05;3.35;;;17.70;86.60;;;;;;6236350;22;20081;-75
2023/04/17 09:23:47;;;;;;;3.72;3.15;;;17.90;86.60;;;;;;6256150;22;20297;-75
2023/04/17 09:26:14;;;;;;;4.45;3.88;;;17.40;82.50;;;;;;6256130;22;20011;-75
2023/04/17 09:28:42;;;;;;;5.93;4.55;;;17.70;56.70;;;;;;6244408;23;20005;-75
2023/04/17 09:31:17;;;;;;;4.00;3.17;;;;;;;;;;6245986;22;20094;-77
2023/04/17 09:34:03;;;;;;;3.10;2.85;;;17.80;56.20;;;;;;6244154;23;20431;-77
2023/04/17 09:36:31;;;;;;;4.90;3.40;;;15.70;55.10;;;;;;6256023;22;20024;-77
2023/04/17 09:39:22;;;;;;;3.47;3.10;;;17.90;56.50;;;;;;6255613;22;20000;-79
2023/04/17 09:41:48;;;;;;;4.25;3.30;;;;;;;;;;6255957;22;20028;-84
2023/04/17 09:44:25;;;;;;;3.42;2.83;;;17.90;56.60;;;;;;6244004;23;20487;-81
2023/04/17 09:46:52;;;;;;;4.75;3.25;;;17.80;56.40;;;;;;6244136;23;20000;-76
2023/04/17 09:49:35;;;;;;;3.70;3.40;;;18.00;86.70;;;;;;6245775;22;20412;-75
2023/04/17 09:52:02;;;;;;;5.60;4.15;;;17.80;86.40;;;;;;6245734;22;20435;-76
2023/04/17 09:54:31;;;;;;;6.70;5.05;;;18.00;86.60;;;;;;6245329;22;19996;-75
2023/04/17 09:57:15;;;;;;;4.90;3.72;;;18.10;74.40;;;;;;6245057;23;20391;-75
2023/04/17 09:59:47;;;;;;;3.85;3.03;;;17.90;76.60;;;;;;6255497;22;20072;-75
2023/04/17 10:02:15;;;;;;;4.47;3.70;;;17.90;86.40;;;;;;6245150;22;20019;-75
2023/04/17 10:04:45;;;;;;;4.32;3.15;;;17.90;78.60;;;;;;6255493;22;19996;-75
2023/04/17 10:07:12;;;;;;;4.80;3.58;;;17.90;86.40;;;;;;6245517;22;20000;-74
2023/04/17 10:09:40;;;;;;;5.85;4.78;;;18.50;56.30;;;;;;6245610;22;20069;-75
2023/04/17 10:12:11;;;;;;;4.72;3.58;;;18.20;86.60;;;;;;6255318;22;20004;-74
2023/04/17 10:14:38;;;;;;;4.72;3.58;;;17.90;76.80;;;;;;6255388;22;19996;-74
2023/04/17 10:17:36;;;;;;;4.95;3.60;;;18.30;86.80;;;;;;6255307;22;20326;-74
2023/04/17 10:20:16;;;;;;;3.90;3.47;;;17.90;86.40;;;;;;6255225;22;20327;-74
2023/04/17 10:22:42;;;;;;;5.43;3.85;;;18.30;86.50;;;;;;6255222;23;20004;-75
2023/04/17 10:25:14;;;;;;;3.40;3.10;;;18.10;52.60;;;;;;6255284;22;20327;-75
2023/04/17 10:27:40;;;;;;;5.63;3.85;;;;;;;;;;6255441;22;19996;-75
2023/04/17 10:30:09;;;;;;;4.05;3.53;;;18.00;86.00;;;;;;6255069;23;20016;-75
2023/04/17 10:32:35;;;;;;;4.93;4.15;;;18.50;69.50;;;;;;6255169;22;20004;-75
2023/04/17 10:35:22;;;;;;;5.05;4.25;;;18.10;58.80;;;;;;6255034;23;19992;-75
2023/04/17 10:37:48;;;;;;;6.82;5.60;;;18.70;85.90;;;;;;6223630;23;20007;-74
2023/04/17 10:40:24;;;;;;;9.27;7.22;;;18.60;85.70;;;;;;6245166;22;19996;-75
2023/04/17 10:43:13;;;;;;;7.47;5.50;;;18.60;52.20;;;;;;6255171;22;20000;-75
2023/04/17 10:46:14;;;;;;;6.63;4.50;;;18.80;85.80;;;;;;6244892;22;20003;-79
2023/04/17 10:48:41;;;;;;;5.22;4.47;;;;;;;;;;6255186;22;20500;-79
2023/04/17 10:51:22;;;;;;;4.78;4.07;;;;;;;;;;6255224;22;20004;-79
2023/04/17 10:53:48;;;;;;;4.15;3.40;;;;;;;;;;6255094;23;20012;-79
2023/04/17 10:56:24;;;;;;;4.85;3.95;;;18.70;56.00;;;;;;6254548;23;20000;-79
2023/04/17 10:59:04;;;;;;;5.97;3.95;;;18.60;52.50;;;;;;6254961;22;20016;-79
2023/04/17 11:01:30;;;;;;;4.60;3.50;;;;;;;;;;6254601;22;20014;-79
2023/04/17 11:03:59;;;;;;;5.68;4.65;;;18.30;85.70;;;;;;6254993;23;20008;-74
2023/04/17 11:06:30;;;;;;;4.65;3.75;;;18.60;86.10;;;;;;6254934;22;20019;-74
2023/04/17 11:08:57;;;;;;;5.82;3.92;;;18.60;55.70;;;;;;6254930;22;20001;-74
2023/04/17 11:11:24;;;;;;;7.57;5.32;;;18.30;85.80;;;;;;6254880;22;20003;-74
2023/04/17 11:13:51;;;;;;;4.75;4.22;;;;;;;;;;6244630;22;20461;-74
2023/04/17 11:16:19;;;;;;;3.75;3.22;;;18.70;54.90;;;;;;6244747;23;20012;-74
2023/04/17 11:18:46;;;;;;;6.05;5.43;;;18.50;85.30;;;;;;6244855;22;20019;-74
2023/04/17 11:21:25;;;;;;;6.70;5.95;;;;;;;;;;6244309;22;20419;-78
2023/04/17 11:23:51;;;;;;;4.35;3.83;;;;;;;;;;6244859;22;20019;-79
2023/04/17 11:26:19;;;;;;;6.80;4.13;;;;;;;;;;6244284;23;20075;-79
2023/04/17 11:28:46;;;;;;;3.58;3.28;;;;;;;;;;6244657;22;20039;-79
2023/04/17 11:31:13;;;;;;;5.35;4.60;;;;;;;;;;6254536;22;20006;-79
2023/04/17 11:33:39;;;;;;;6.00;4.53;;;;;;;;;;6254483;23;19992;-80
2023/04/17 11:36:06;;;;;;;4.20;3.78;;;;;;;;;;6254592;22;20071;-79
2023/04/17 11:38:32;;;;;;;3.47;3.17;;;;;;;;;;6254433;23;19992;-79
2023/04/17 11:41:00;;;;;;;3.03;2.83;;;19.90;53.60;;;;;;6254379;23;20008;-79
2023/04/17 11:43:27;;;;;;;6.53;5.70;;;19.90;52.70;;;;;;6254392;22;20003;-79
2023/04/17 11:45:58;;;;;;;3.70;3.30;;;19.90;53.20;;;;;;6254308;22;20001;-79
2023/04/17 11:48:26;;;;;;;3.95;3.63;;;19.90;53.30;;;;;;6254369;22;20022;-79
2023/04/17 11:50:57;;;;;;;4.85;3.97;;;19.90;53.70;;;;;;6254455;23;20338;-79
2023/04/17 11:53:23;;;;;;;4.93;4.30;;;20.00;52.30;;;;;;6242615;23;19997;-79
2023/04/17 11:56:16;;;;;;;3.45;3.15;;;20.00;53.50;;;;;;6254482;22;20042;-79
2023/04/17 11:58:52;;;;;;;4.10;3.33;;;20.10;50.60;;;;;;6254642;22;19993;-75
2023/04/17 12:01:23;;;;;;;4.32;3.92;;;20.20;53.60;;;;;;6254385;22;20059;-75
2023/04/17 12:03:49;;;;;;;4.03;3.60;;;20.30;64.60;;;;;;6254236;22;20008;-75
2023/04/17 12:06:15;;;;;;;4.32;3.92;;;20.50;53.70;;;;;;6254472;22;20023;-75
2023/04/17 12:08:43;;;;;;;4.10;3.50;;;20.30;82.90;;;;;;6246667;22;19992;-75
2023/04/17 12:11:21;;;;;;;5.10;4.57;;;20.70;82.70;;;;;;6246699;22;20418;-76
2023/04/17 12:13:47;;;;;;;6.18;5.03;;;20.70;82.60;;;;;;6246672;22;20007;-75
2023/04/17 12:16:13;;;;;;;3.83;3.42;;;;;;;;;;6246632;23;20004;-79
2023/04/17 12:18:39;;;;;;;5.88;4.28;;;20.90;82.40;;;;;;6244582;23;20023;-75
2023/04/17 12:21:05;;;;;;;4.13;3.47;;;21.00;81.90;;;;;;6256302;23;20005;-75
2023/04/17 12:23:30;;;;;;;4.20;3.38;;;20.70;81.80;;;;;;6256256;22;20003;-75
2023/04/17 12:25:56;;;;;;;3.53;3.22;;;;;;;;;;6256460;23;19996;-75
2023/04/17 12:28:23;;;;;;;3.88;3.40;;;21.10;82.00;;;;;;6246089;23;20092;-75
2023/04/17 12:30:49;;;;;;;6.45;4.32;;;20.80;81.50;;;;;;6246408;23;20031;-75
2023/04/17 12:33:15;;;;;;;5.88;5.20;;;21.00;81.30;;;;;;6246021;23;19992;-75
2023/04/17 12:35:42;;;;;;;4.05;3.67;;;;;;;;;;6246412;22;20018;-76
2023/04/17 12:38:08;;;;;;;4.25;3.25;;;;;;;;;;6246341;23;20012;-74
2023/04/17 12:40:34;;;;;;;4.38;3.97;;;;;;;;;;6246006;23;20015;-75
2023/04/17 12:43:00;;;;;;;5.05;4.55;;;21.20;80.50;;;;;;6246262;23;20063;-75
2023/04/17 12:45:27;;;;;;;6.20;5.13;;;21.30;80.20;;;;;;6246150;23;20419;-75
2023/04/17 12:47:53;;;;;;;6.60;4.88;;;21.70;80.70;;;;;;6246057;23;20031;-75
2023/04/17 12:50:19;;;;;;;4.53;4.13;;;21.30;80.40;;;;;;6246174;23;20038;-75
2023/04/17 12:52:45;;;;;;;5.85;5.18;;;21.40;80.40;;;;;;6245839;23;20004;-76
2023/04/17 12:55:11;;;;;;;5.35;4.30;;;21.60;80.50;;;;;;6245848;23;20331;-76
2023/04/17 12:57:38;;;;;;;4.38;3.90;;;;;;;;;;6246031;23;19992;-76
2023/04/17 13:00:06;;;;;;;6.10;5.35;;;21.40;63.80;;;;;;6246174;22;20001;-75
2023/04/17 13:02:32;;;;;;;5.38;4.35;;;21.20;80.60;;;;;;6245596;22;20012;-75
2023/04/17 13:04:58;;;;;;;4.90;4.20;;;21.80;81.10;;;;;;6246069;23;19996;-75
2023/04/17 13:07:24;;;;;;;5.53;4.20;;;21.40;80.90;;;;;;6245680;22;20007;-74
2023/04/17 13:09:51;;;;;;;6.25;4.90;;;;;;;;;;6245648;22;19996;-76